sensor_id;sensor_type;location;lat;lon;timestamp;P1;P2;P0
55754;PMS5003;41674;52.290;-1.474;2023-02-28T00:00:50;3;3;
55754;PMS5003;41674;52.290;-1.474;2023-02-28T00:03:19;4;4;
55754;PMS5003;41674;52.290;-1.474;2023-02-28T00:05:49;3;3;
55754;PMS5003;41674;52.290;-1.474;2023-02-28T00:08:19;3;3;
55754;PMS5003;41674;52.290;-1.474;2023-02-28T00:10:48;5;4;
55754;PMS5003;41674;52.290;-1.474;2023-02-28T00:13:18;3;3;
55754;PMS5003;41674;52.290;-1.474;2023-02-28T00:18:17;5;5;
55754;PMS5003;41674;52.290;-1.474;2023-02-28T00:20:47;6;5;
55754;PMS5003;41674;52.290;-1.474;2023-02-28T00:23:17;5;5;
55754;PMS5003;41674;52.290;-1.474;2023-02-28T00:25:47;6;5;
55754;PMS5003;41674;52.290;-1.474;2023-02-28T00:28:16;4;4;
55754;PMS5003;41674;52.290;-1.474;2023-02-28T00:30:46;5;5;
55754;PMS5003;41674;52.290;-1.474;2023-02-28T00:33:16;6;6;
55754;PMS5003;41674;52.290;-1.474;2023-02-28T00:35:45;5;5;
55754;PMS5003;41674;52.290;-1.474;2023-02-28T00:38:15;5;4;
55754;PMS5003;41674;52.290;-1.474;2023-02-28T00:40:45;6;6;
55754;PMS5003;41674;52.290;-1.474;2023-02-28T00:43:14;5;5;
55754;PMS5003;41674;52.290;-1.474;2023-02-28T00:45:44;5;5;
55754;PMS5003;41674;52.290;-1.474;2023-02-28T00:48:14;4;4;
55754;PMS5003;41674;52.290;-1.474;2023-02-28T00:50:44;8;5;
55754;PMS5003;41674;52.290;-1.474;2023-02-28T00:53:13;6;5;
55754;PMS5003;41674;52.290;-1.474;2023-02-28T00:55:43;7;5;
55754;PMS5003;41674;52.290;-1.474;2023-02-28T00:58:13;4;4;
55754;PMS5003;41674;52.290;-1.474;2023-02-28T01:00:43;6;5;
55754;PMS5003;41674;52.290;-1.474;2023-02-28T01:03:12;4;4;
55754;PMS5003;41674;52.290;-1.474;2023-02-28T01:05:42;7;5;
55754;PMS5003;41674;52.290;-1.474;2023-02-28T01:08:12;6;4;
55754;PMS5003;41674;52.290;-1.474;2023-02-28T01:10:42;7;5;
55754;PMS5003;41674;52.290;-1.474;2023-02-28T01:13:11;5;4;
55754;PMS5003;41674;52.290;-1.474;2023-02-28T01:15:41;5;5;
55754;PMS5003;41674;52.290;-1.474;2023-02-28T01:18:10;7;5;
55754;PMS5003;41674;52.290;-1.474;2023-02-28T01:20:40;8;7;
55754;PMS5003;41674;52.290;-1.474;2023-02-28T01:23:10;6;4;
55754;PMS5003;41674;52.290;-1.474;2023-02-28T01:25:40;4;4;
55754;PMS5003;41674;52.290;-1.474;2023-02-28T01:28:09;6;5;
55754;PMS5003;41674;52.290;-1.474;2023-02-28T01:30:39;6;6;
55754;PMS5003;41674;52.290;-1.474;2023-02-28T01:33:09;8;7;
55754;PMS5003;41674;52.290;-1.474;2023-02-28T01:35:38;5;4;
55754;PMS5003;41674;52.290;-1.474;2023-02-28T01:38:08;8;7;
55754;PMS5003;41674;52.290;-1.474;2023-02-28T01:40:38;7;5;
55754;PMS5003;41674;52.290;-1.474;2023-02-28T01:43:09;6;6;
55754;PMS5003;41674;52.290;-1.474;2023-02-28T01:45:37;9;8;
55754;PMS5003;41674;52.290;-1.474;2023-02-28T01:48:07;6;6;
55754;PMS5003;41674;52.290;-1.474;2023-02-28T01:50:37;6;6;
55754;PMS5003;41674;52.290;-1.474;2023-02-28T01:53:07;5;5;
55754;PMS5003;41674;52.290;-1.474;2023-02-28T01:55:36;9;7;
55754;PMS5003;41674;52.290;-1.474;2023-02-28T01:58:05;7;7;
55754;PMS5003;41674;52.290;-1.474;2023-02-28T02:00:35;7;7;
55754;PMS5003;41674;52.290;-1.474;2023-02-28T02:03:06;9;9;
55754;PMS5003;41674;52.290;-1.474;2023-02-28T02:05:34;11;9;
55754;PMS5003;41674;52.290;-1.474;2023-02-28T02:08:05;9;9;
55754;PMS5003;41674;52.290;-1.474;2023-02-28T02:10:34;7;7;
55754;PMS5003;41674;52.290;-1.474;2023-02-28T02:13:08;8;8;
55754;PMS5003;41674;52.290;-1.474;2023-02-28T02:15:34;8;8;
55754;PMS5003;41674;52.290;-1.474;2023-02-28T02:18:04;8;7;
55754;PMS5003;41674;52.290;-1.474;2023-02-28T02:20:37;11;10;
55754;PMS5003;41674;52.290;-1.474;2023-02-28T02:23:07;7;6;
55754;PMS5003;41674;52.290;-1.474;2023-02-28T02:25:32;7;7;
55754;PMS5003;41674;52.290;-1.474;2023-02-28T02:28:09;6;6;
55754;PMS5003;41674;52.290;-1.474;2023-02-28T02:30:35;7;6;
55754;PMS5003;41674;52.290;-1.474;2023-02-28T02:33:10;9;9;
55754;PMS5003;41674;52.290;-1.474;2023-02-28T02:35:30;8;6;
55754;PMS5003;41674;52.290;-1.474;2023-02-28T02:38:01;6;6;
55754;PMS5003;41674;52.290;-1.474;2023-02-28T02:40:30;7;7;
55754;PMS5003;41674;52.290;-1.474;2023-02-28T02:43:00;7;7;
55754;PMS5003;41674;52.290;-1.474;2023-02-28T02:45:31;9;9;
55754;PMS5003;41674;52.290;-1.474;2023-02-28T02:47:58;11;10;
55754;PMS5003;41674;52.290;-1.474;2023-02-28T02:50:29;7;5;
55754;PMS5003;41674;52.290;-1.474;2023-02-28T02:52:59;7;7;
55754;PMS5003;41674;52.290;-1.474;2023-02-28T02:55:27;8;7;
55754;PMS5003;41674;52.290;-1.474;2023-02-28T02:57:58;7;6;
55754;PMS5003;41674;52.290;-1.474;2023-02-28T03:00:27;9;9;
55754;PMS5003;41674;52.290;-1.474;2023-02-28T03:02:56;7;7;
55754;PMS5003;41674;52.290;-1.474;2023-02-28T03:05:26;10;9;
55754;PMS5003;41674;52.290;-1.474;2023-02-28T03:07:56;9;7;
55754;PMS5003;41674;52.290;-1.474;2023-02-28T03:10:28;8;8;
55754;PMS5003;41674;52.290;-1.474;2023-02-28T03:12:57;9;8;
55754;PMS5003;41674;52.290;-1.474;2023-02-28T03:15:26;10;8;
55754;PMS5003;41674;52.290;-1.474;2023-02-28T03:17:58;7;7;
55754;PMS5003;41674;52.290;-1.474;2023-02-28T03:20:27;10;10;
55754;PMS5003;41674;52.290;-1.474;2023-02-28T03:22:57;9;9;
55754;PMS5003;41674;52.290;-1.474;2023-02-28T03:25:28;10;9;
55754;PMS5003;41674;52.290;-1.474;2023-02-28T03:27:55;9;9;
55754;PMS5003;41674;52.290;-1.474;2023-02-28T03:30:24;11;11;
55754;PMS5003;41674;52.290;-1.474;2023-02-28T03:32:54;9;8;
55754;PMS5003;41674;52.290;-1.474;2023-02-28T03:35:23;10;9;
55754;PMS5003;41674;52.290;-1.474;2023-02-28T03:37:53;9;9;
55754;PMS5003;41674;52.290;-1.474;2023-02-28T03:40:22;8;8;
55754;PMS5003;41674;52.290;-1.474;2023-02-28T03:42:52;9;9;
55754;PMS5003;41674;52.290;-1.474;2023-02-28T03:45:21;13;13;
55754;PMS5003;41674;52.290;-1.474;2023-02-28T03:47:51;13;10;
55754;PMS5003;41674;52.290;-1.474;2023-02-28T03:50:21;10;10;
55754;PMS5003;41674;52.290;-1.474;2023-02-28T03:52:50;10;10;
55754;PMS5003;41674;52.290;-1.474;2023-02-28T03:55:19;14;13;
55754;PMS5003;41674;52.290;-1.474;2023-02-28T03:57:52;12;10;
55754;PMS5003;41674;52.290;-1.474;2023-02-28T04:00:19;13;13;
55754;PMS5003;41674;52.290;-1.474;2023-02-28T04:02:48;14;12;
55754;PMS5003;41674;52.290;-1.474;2023-02-28T04:05:17;14;14;
55754;PMS5003;41674;52.290;-1.474;2023-02-28T04:07:47;18;17;
55754;PMS5003;41674;52.290;-1.474;2023-02-28T04:10:16;19;17;
55754;PMS5003;41674;52.290;-1.474;2023-02-28T04:12:46;19;16;
55754;PMS5003;41674;52.290;-1.474;2023-02-28T04:15:16;23;17;
55754;PMS5003;41674;52.290;-1.474;2023-02-28T04:17:46;19;18;
55754;PMS5003;41674;52.290;-1.474;2023-02-28T04:20:15;16;15;
55754;PMS5003;41674;52.290;-1.474;2023-02-28T04:22:45;20;20;
55754;PMS5003;41674;52.290;-1.474;2023-02-28T04:25:14;19;17;
55754;PMS5003;41674;52.290;-1.474;2023-02-28T04:27:44;21;19;
55754;PMS5003;41674;52.290;-1.474;2023-02-28T04:30:14;21;20;
55754;PMS5003;41674;52.290;-1.474;2023-02-28T04:32:43;21;17;
55754;PMS5003;41674;52.290;-1.474;2023-02-28T04:35:12;21;18;
55754;PMS5003;41674;52.290;-1.474;2023-02-28T04:37:41;21;19;
55754;PMS5003;41674;52.290;-1.474;2023-02-28T04:40:11;25;23;
55754;PMS5003;41674;52.290;-1.474;2023-02-28T04:42:40;21;16;
55754;PMS5003;41674;52.290;-1.474;2023-02-28T04:45:10;24;20;
55754;PMS5003;41674;52.290;-1.474;2023-02-28T04:47:39;19;18;
55754;PMS5003;41674;52.290;-1.474;2023-02-28T04:50:09;21;19;
55754;PMS5003;41674;52.290;-1.474;2023-02-28T04:52:38;19;18;
55754;PMS5003;41674;52.290;-1.474;2023-02-28T04:55:07;22;19;
55754;PMS5003;41674;52.290;-1.474;2023-02-28T04:57:36;20;19;
55754;PMS5003;41674;52.290;-1.474;2023-02-28T05:00:06;18;18;
55754;PMS5003;41674;52.290;-1.474;2023-02-28T05:02:35;21;19;
55754;PMS5003;41674;52.290;-1.474;2023-02-28T05:05:05;18;17;
55754;PMS5003;41674;52.290;-1.474;2023-02-28T05:07:34;19;18;
55754;PMS5003;41674;52.290;-1.474;2023-02-28T05:10:04;22;17;
55754;PMS5003;41674;52.290;-1.474;2023-02-28T05:12:33;24;21;
55754;PMS5003;41674;52.290;-1.474;2023-02-28T05:15:03;18;18;
55754;PMS5003;41674;52.290;-1.474;2023-02-28T05:17:32;21;17;
55754;PMS5003;41674;52.290;-1.474;2023-02-28T05:20:02;17;17;
55754;PMS5003;41674;52.290;-1.474;2023-02-28T05:22:31;20;17;
55754;PMS5003;41674;52.290;-1.474;2023-02-28T05:25:00;19;15;
55754;PMS5003;41674;52.290;-1.474;2023-02-28T05:27:29;23;19;
55754;PMS5003;41674;52.290;-1.474;2023-02-28T05:29:59;20;17;
55754;PMS5003;41674;52.290;-1.474;2023-02-28T05:32:29;19;17;
55754;PMS5003;41674;52.290;-1.474;2023-02-28T05:34:58;19;18;
55754;PMS5003;41674;52.290;-1.474;2023-02-28T05:37:29;18;14;
55754;PMS5003;41674;52.290;-1.474;2023-02-28T05:39:58;21;17;
55754;PMS5003;41674;52.290;-1.474;2023-02-28T05:42:27;14;14;
55754;PMS5003;41674;52.290;-1.474;2023-02-28T05:44:57;17;16;
55754;PMS5003;41674;52.290;-1.474;2023-02-28T05:47:26;15;15;
55754;PMS5003;41674;52.290;-1.474;2023-02-28T05:49:55;13;12;
55754;PMS5003;41674;52.290;-1.474;2023-02-28T05:52:25;16;16;
55754;PMS5003;41674;52.290;-1.474;2023-02-28T05:54:54;16;15;
55754;PMS5003;41674;52.290;-1.474;2023-02-28T05:57:24;21;18;
55754;PMS5003;41674;52.290;-1.474;2023-02-28T05:59:53;17;15;
55754;PMS5003;41674;52.290;-1.474;2023-02-28T06:02:23;13;13;
55754;PMS5003;41674;52.290;-1.474;2023-02-28T06:04:52;14;11;
55754;PMS5003;41674;52.290;-1.474;2023-02-28T06:07:22;11;10;
55754;PMS5003;41674;52.290;-1.474;2023-02-28T06:09:52;13;11;
55754;PMS5003;41674;52.290;-1.474;2023-02-28T06:12:21;12;10;
55754;PMS5003;41674;52.290;-1.474;2023-02-28T06:14:51;12;12;
55754;PMS5003;41674;52.290;-1.474;2023-02-28T06:17:20;12;10;
55754;PMS5003;41674;52.290;-1.474;2023-02-28T06:19:50;11;10;
55754;PMS5003;41674;52.290;-1.474;2023-02-28T06:22:20;10;10;
55754;PMS5003;41674;52.290;-1.474;2023-02-28T06:24:49;16;12;
55754;PMS5003;41674;52.290;-1.474;2023-02-28T06:27:18;13;11;
55754;PMS5003;41674;52.290;-1.474;2023-02-28T06:29:48;13;13;
55754;PMS5003;41674;52.290;-1.474;2023-02-28T06:32:17;12;10;
55754;PMS5003;41674;52.290;-1.474;2023-02-28T06:34:47;14;12;
55754;PMS5003;41674;52.290;-1.474;2023-02-28T06:37:17;10;9;
55754;PMS5003;41674;52.290;-1.474;2023-02-28T06:39:46;11;11;
55754;PMS5003;41674;52.290;-1.474;2023-02-28T06:42:16;14;12;
55754;PMS5003;41674;52.290;-1.474;2023-02-28T06:44:46;11;11;
55754;PMS5003;41674;52.290;-1.474;2023-02-28T06:47:16;13;10;
55754;PMS5003;41674;52.290;-1.474;2023-02-28T06:49:45;14;11;
55754;PMS5003;41674;52.290;-1.474;2023-02-28T06:52:15;10;10;
55754;PMS5003;41674;52.290;-1.474;2023-02-28T06:54:45;11;10;
55754;PMS5003;41674;52.290;-1.474;2023-02-28T06:57:14;12;9;
55754;PMS5003;41674;52.290;-1.474;2023-02-28T06:59:43;10;10;
55754;PMS5003;41674;52.290;-1.474;2023-02-28T07:02:13;13;12;
55754;PMS5003;41674;52.290;-1.474;2023-02-28T07:04:42;8;8;
55754;PMS5003;41674;52.290;-1.474;2023-02-28T07:07:11;12;9;
55754;PMS5003;41674;52.290;-1.474;2023-02-28T07:09:41;11;9;
55754;PMS5003;41674;52.290;-1.474;2023-02-28T07:12:11;8;8;
55754;PMS5003;41674;52.290;-1.474;2023-02-28T07:14:40;10;10;
55754;PMS5003;41674;52.290;-1.474;2023-02-28T07:17:10;15;10;
55754;PMS5003;41674;52.290;-1.474;2023-02-28T07:19:40;12;10;
55754;PMS5003;41674;52.290;-1.474;2023-02-28T07:22:09;11;11;
55754;PMS5003;41674;52.290;-1.474;2023-02-28T07:24:39;11;11;
55754;PMS5003;41674;52.290;-1.474;2023-02-28T07:27:08;12;12;
55754;PMS5003;41674;52.290;-1.474;2023-02-28T07:29:38;11;10;
55754;PMS5003;41674;52.290;-1.474;2023-02-28T07:32:07;12;12;
55754;PMS5003;41674;52.290;-1.474;2023-02-28T07:34:37;13;10;
55754;PMS5003;41674;52.290;-1.474;2023-02-28T07:37:06;14;12;
55754;PMS5003;41674;52.290;-1.474;2023-02-28T07:39:36;12;12;
55754;PMS5003;41674;52.290;-1.474;2023-02-28T07:42:06;16;16;
55754;PMS5003;41674;52.290;-1.474;2023-02-28T07:44:35;10;10;
55754;PMS5003;41674;52.290;-1.474;2023-02-28T07:47:05;16;14;
55754;PMS5003;41674;52.290;-1.474;2023-02-28T07:49:34;16;15;
55754;PMS5003;41674;52.290;-1.474;2023-02-28T07:52:04;16;15;
55754;PMS5003;41674;52.290;-1.474;2023-02-28T07:57:02;16;13;
55754;PMS5003;41674;52.290;-1.474;2023-02-28T07:59:32;17;15;
55754;PMS5003;41674;52.290;-1.474;2023-02-28T08:02:01;22;18;
55754;PMS5003;41674;52.290;-1.474;2023-02-28T08:04:31;18;15;
55754;PMS5003;41674;52.290;-1.474;2023-02-28T08:07:00;26;19;
55754;PMS5003;41674;52.290;-1.474;2023-02-28T08:09:29;28;19;
55754;PMS5003;41674;52.290;-1.474;2023-02-28T08:14:28;23;21;
55754;PMS5003;41674;52.290;-1.474;2023-02-28T08:16:58;28;27;
55754;PMS5003;41674;52.290;-1.474;2023-02-28T08:19:27;24;23;
55754;PMS5003;41674;52.290;-1.474;2023-02-28T08:21:57;28;23;
55754;PMS5003;41674;52.290;-1.474;2023-02-28T08:24:26;38;28;
55754;PMS5003;41674;52.290;-1.474;2023-02-28T08:26:55;37;27;
55754;PMS5003;41674;52.290;-1.474;2023-02-28T08:29:25;35;31;
55754;PMS5003;41674;52.290;-1.474;2023-02-28T08:31:55;36;29;
55754;PMS5003;41674;52.290;-1.474;2023-02-28T08:34:24;39;33;
55754;PMS5003;41674;52.290;-1.474;2023-02-28T08:36:53;33;32;
55754;PMS5003;41674;52.290;-1.474;2023-02-28T08:39:22;39;34;
55754;PMS5003;41674;52.290;-1.474;2023-02-28T08:41:51;40;33;
55754;PMS5003;41674;52.290;-1.474;2023-02-28T08:44:21;37;31;
55754;PMS5003;41674;52.290;-1.474;2023-02-28T08:46:50;35;32;
55754;PMS5003;41674;52.290;-1.474;2023-02-28T08:49:19;33;27;
55754;PMS5003;41674;52.290;-1.474;2023-02-28T08:51:49;38;32;
55754;PMS5003;41674;52.290;-1.474;2023-02-28T08:54:18;37;31;
55754;PMS5003;41674;52.290;-1.474;2023-02-28T08:56:48;43;34;
55754;PMS5003;41674;52.290;-1.474;2023-02-28T08:59:18;37;29;
55754;PMS5003;41674;52.290;-1.474;2023-02-28T09:01:47;40;35;
55754;PMS5003;41674;52.290;-1.474;2023-02-28T09:04:16;40;32;
55754;PMS5003;41674;52.290;-1.474;2023-02-28T09:06:46;39;31;
55754;PMS5003;41674;52.290;-1.474;2023-02-28T09:09:15;34;29;
55754;PMS5003;41674;52.290;-1.474;2023-02-28T09:11:44;36;31;
55754;PMS5003;41674;52.290;-1.474;2023-02-28T09:14:13;43;37;
55754;PMS5003;41674;52.290;-1.474;2023-02-28T09:16:42;33;29;
55754;PMS5003;41674;52.290;-1.474;2023-02-28T09:19:12;34;28;
55754;PMS5003;41674;52.290;-1.474;2023-02-28T09:21:41;40;32;
55754;PMS5003;41674;52.290;-1.474;2023-02-28T09:24:11;40;37;
55754;PMS5003;41674;52.290;-1.474;2023-02-28T09:26:40;42;30;
55754;PMS5003;41674;52.290;-1.474;2023-02-28T09:29:09;33;29;
55754;PMS5003;41674;52.290;-1.474;2023-02-28T09:31:38;39;32;
55754;PMS5003;41674;52.290;-1.474;2023-02-28T09:34:08;37;30;
55754;PMS5003;41674;52.290;-1.474;2023-02-28T09:36:38;30;23;
55754;PMS5003;41674;52.290;-1.474;2023-02-28T09:39:07;34;31;
55754;PMS5003;41674;52.290;-1.474;2023-02-28T09:41:37;30;27;
55754;PMS5003;41674;52.290;-1.474;2023-02-28T09:44:06;38;28;
55754;PMS5003;41674;52.290;-1.474;2023-02-28T09:46:36;35;30;
55754;PMS5003;41674;52.290;-1.474;2023-02-28T09:49:05;30;25;
55754;PMS5003;41674;52.290;-1.474;2023-02-28T09:51:37;39;28;
55754;PMS5003;41674;52.290;-1.474;2023-02-28T09:54:04;34;26;
55754;PMS5003;41674;52.290;-1.474;2023-02-28T09:56:36;33;28;
55754;PMS5003;41674;52.290;-1.474;2023-02-28T09:59:04;31;27;
55754;PMS5003;41674;52.290;-1.474;2023-02-28T10:01:34;29;25;
55754;PMS5003;41674;52.290;-1.474;2023-02-28T10:04:03;34;28;
55754;PMS5003;41674;52.290;-1.474;2023-02-28T10:06:32;30;27;
55754;PMS5003;41674;52.290;-1.474;2023-02-28T10:09:02;30;28;
55754;PMS5003;41674;52.290;-1.474;2023-02-28T10:11:32;27;24;
55754;PMS5003;41674;52.290;-1.474;2023-02-28T10:14:00;30;26;
55754;PMS5003;41674;52.290;-1.474;2023-02-28T10:16:30;27;24;
55754;PMS5003;41674;52.290;-1.474;2023-02-28T10:19:01;31;24;
55754;PMS5003;41674;52.290;-1.474;2023-02-28T10:21:35;30;23;
55754;PMS5003;41674;52.290;-1.474;2023-02-28T10:24:01;25;21;
55754;PMS5003;41674;52.290;-1.474;2023-02-28T10:26:27;28;20;
55754;PMS5003;41674;52.290;-1.474;2023-02-28T10:28:57;22;20;
55754;PMS5003;41674;52.290;-1.474;2023-02-28T10:31:26;17;17;
55754;PMS5003;41674;52.290;-1.474;2023-02-28T10:33:55;19;16;
55754;PMS5003;41674;52.290;-1.474;2023-02-28T10:36:24;18;16;
55754;PMS5003;41674;52.290;-1.474;2023-02-28T10:38:54;20;16;
55754;PMS5003;41674;52.290;-1.474;2023-02-28T10:41:27;16;16;
55754;PMS5003;41674;52.290;-1.474;2023-02-28T10:43:53;13;11;
55754;PMS5003;41674;52.290;-1.474;2023-02-28T10:46:22;17;14;
55754;PMS5003;41674;52.290;-1.474;2023-02-28T10:49:00;10;9;
55754;PMS5003;41674;52.290;-1.474;2023-02-28T10:51:21;11;8;
55754;PMS5003;41674;52.290;-1.474;2023-02-28T10:53:51;12;11;
55754;PMS5003;41674;52.290;-1.474;2023-02-28T10:56:21;10;10;
55754;PMS5003;41674;52.290;-1.474;2023-02-28T10:58:51;13;13;
55754;PMS5003;41674;52.290;-1.474;2023-02-28T11:01:20;13;13;
55754;PMS5003;41674;52.290;-1.474;2023-02-28T11:03:49;12;11;
55754;PMS5003;41674;52.290;-1.474;2023-02-28T11:06:19;14;13;
55754;PMS5003;41674;52.290;-1.474;2023-02-28T11:08:50;11;10;
55754;PMS5003;41674;52.290;-1.474;2023-02-28T11:11:17;10;10;
55754;PMS5003;41674;52.290;-1.474;2023-02-28T11:13:47;13;12;
55754;PMS5003;41674;52.290;-1.474;2023-02-28T11:16:16;14;11;
55754;PMS5003;41674;52.290;-1.474;2023-02-28T11:18:47;19;14;
55754;PMS5003;41674;52.290;-1.474;2023-02-28T11:21:17;12;10;
55754;PMS5003;41674;52.290;-1.474;2023-02-28T11:23:46;15;11;
55754;PMS5003;41674;52.290;-1.474;2023-02-28T11:26:14;9;9;
55754;PMS5003;41674;52.290;-1.474;2023-02-28T11:28:44;10;9;
55754;PMS5003;41674;52.290;-1.474;2023-02-28T11:31:16;13;12;
55754;PMS5003;41674;52.290;-1.474;2023-02-28T11:33:44;13;12;
55754;PMS5003;41674;52.290;-1.474;2023-02-28T11:36:14;11;10;
55754;PMS5003;41674;52.290;-1.474;2023-02-28T11:38:42;12;11;
55754;PMS5003;41674;52.290;-1.474;2023-02-28T11:41:17;9;7;
55754;PMS5003;41674;52.290;-1.474;2023-02-28T11:43:46;7;7;
55754;PMS5003;41674;52.290;-1.474;2023-02-28T11:46:16;9;8;
55754;PMS5003;41674;52.290;-1.474;2023-02-28T11:48:43;8;8;
55754;PMS5003;41674;52.290;-1.474;2023-02-28T11:51:13;9;8;
55754;PMS5003;41674;52.290;-1.474;2023-02-28T11:56:10;7;5;
55754;PMS5003;41674;52.290;-1.474;2023-02-28T11:58:42;8;8;
55754;PMS5003;41674;52.290;-1.474;2023-02-28T12:01:13;6;6;
55754;PMS5003;41674;52.290;-1.474;2023-02-28T12:03:42;7;7;
55754;PMS5003;41674;52.290;-1.474;2023-02-28T12:06:12;8;8;
55754;PMS5003;41674;52.290;-1.474;2023-02-28T12:08:43;11;8;
55754;PMS5003;41674;52.290;-1.474;2023-02-28T12:11:10;6;6;
55754;PMS5003;41674;52.290;-1.474;2023-02-28T12:13:40;7;7;
55754;PMS5003;41674;52.290;-1.474;2023-02-28T12:18:41;9;6;
55754;PMS5003;41674;52.290;-1.474;2023-02-28T12:21:10;8;7;
55754;PMS5003;41674;52.290;-1.474;2023-02-28T12:23:42;8;5;
55754;PMS5003;41674;52.290;-1.474;2023-02-28T12:26:07;5;5;
55754;PMS5003;41674;52.290;-1.474;2023-02-28T12:28:36;6;5;
55754;PMS5003;41674;52.290;-1.474;2023-02-28T12:31:06;6;4;
55754;PMS5003;41674;52.290;-1.474;2023-02-28T12:33:35;5;5;
55754;PMS5003;41674;52.290;-1.474;2023-02-28T12:36:05;4;4;
55754;PMS5003;41674;52.290;-1.474;2023-02-28T12:38:35;6;4;
55754;PMS5003;41674;52.290;-1.474;2023-02-28T12:41:04;5;5;
55754;PMS5003;41674;52.290;-1.474;2023-02-28T12:43:34;4;4;
55754;PMS5003;41674;52.290;-1.474;2023-02-28T12:46:04;5;5;
55754;PMS5003;41674;52.290;-1.474;2023-02-28T12:48:37;5;5;
55754;PMS5003;41674;52.290;-1.474;2023-02-28T12:51:02;4;4;
55754;PMS5003;41674;52.290;-1.474;2023-02-28T12:53:35;6;4;
55754;PMS5003;41674;52.290;-1.474;2023-02-28T12:56:07;5;5;
55754;PMS5003;41674;52.290;-1.474;2023-02-28T12:58:33;7;7;
55754;PMS5003;41674;52.290;-1.474;2023-02-28T13:01:12;10;7;
55754;PMS5003;41674;52.290;-1.474;2023-02-28T13:03:35;5;4;
55754;PMS5003;41674;52.290;-1.474;2023-02-28T13:06:04;6;6;
55754;PMS5003;41674;52.290;-1.474;2023-02-28T13:10:59;7;6;
55754;PMS5003;41674;52.290;-1.474;2023-02-28T13:13:29;6;5;
55754;PMS5003;41674;52.290;-1.474;2023-02-28T13:16:00;8;7;
55754;PMS5003;41674;52.290;-1.474;2023-02-28T13:18:30;7;7;
55754;PMS5003;41674;52.290;-1.474;2023-02-28T13:20:58;9;7;
55754;PMS5003;41674;52.290;-1.474;2023-02-28T13:23:38;6;6;
55754;PMS5003;41674;52.290;-1.474;2023-02-28T13:25:57;5;5;
55754;PMS5003;41674;52.290;-1.474;2023-02-28T13:31:02;6;6;
55754;PMS5003;41674;52.290;-1.474;2023-02-28T13:33:27;8;8;
55754;PMS5003;41674;52.290;-1.474;2023-02-28T13:36:03;7;7;
55754;PMS5003;41674;52.290;-1.474;2023-02-28T13:38:33;8;7;
55754;PMS5003;41674;52.290;-1.474;2023-02-28T13:40:55;7;7;
55754;PMS5003;41674;52.290;-1.474;2023-02-28T13:43:29;4;4;
55754;PMS5003;41674;52.290;-1.474;2023-02-28T13:48:25;7;5;
55754;PMS5003;41674;52.290;-1.474;2023-02-28T13:50:54;7;7;
55754;PMS5003;41674;52.290;-1.474;2023-02-28T13:53:30;7;5;
55754;PMS5003;41674;52.290;-1.474;2023-02-28T13:55:53;4;4;
55754;PMS5003;41674;52.290;-1.474;2023-02-28T13:58:27;6;6;
55754;PMS5003;41674;52.290;-1.474;2023-02-28T14:00:58;5;5;
55754;PMS5003;41674;52.290;-1.474;2023-02-28T14:03:26;4;3;
55754;PMS5003;41674;52.290;-1.474;2023-02-28T14:08:21;6;5;
55754;PMS5003;41674;52.290;-1.474;2023-02-28T14:11:02;5;5;
55754;PMS5003;41674;52.290;-1.474;2023-02-28T14:15:55;6;6;
55754;PMS5003;41674;52.290;-1.474;2023-02-28T14:18:21;7;6;
55754;PMS5003;41674;52.290;-1.474;2023-02-28T14:20:51;6;6;
55754;PMS5003;41674;52.290;-1.474;2023-02-28T14:23:23;7;5;
55754;PMS5003;41674;52.290;-1.474;2023-02-28T14:25:52;5;4;
55754;PMS5003;41674;52.290;-1.474;2023-02-28T14:28:19;5;5;
55754;PMS5003;41674;52.290;-1.474;2023-02-28T14:33:20;7;6;
55754;PMS5003;41674;52.290;-1.474;2023-02-28T14:35:52;5;5;
55754;PMS5003;41674;52.290;-1.474;2023-02-28T14:38:18;7;5;
55754;PMS5003;41674;52.290;-1.474;2023-02-28T14:40:47;6;6;
55754;PMS5003;41674;52.290;-1.474;2023-02-28T14:43:19;6;5;
55754;PMS5003;41674;52.290;-1.474;2023-02-28T14:45:49;4;4;
55754;PMS5003;41674;52.290;-1.474;2023-02-28T14:48:16;7;5;
55754;PMS5003;41674;52.290;-1.474;2023-02-28T14:50:48;5;5;
55754;PMS5003;41674;52.290;-1.474;2023-02-28T14:53:17;5;4;
55754;PMS5003;41674;52.290;-1.474;2023-02-28T14:55:45;7;6;
55754;PMS5003;41674;52.290;-1.474;2023-02-28T14:58:21;5;4;
55754;PMS5003;41674;52.290;-1.474;2023-02-28T15:00:47;6;6;
55754;PMS5003;41674;52.290;-1.474;2023-02-28T15:03:18;8;6;
55754;PMS5003;41674;52.290;-1.474;2023-02-28T15:05:44;7;7;
55754;PMS5003;41674;52.290;-1.474;2023-02-28T15:08:14;7;7;
55754;PMS5003;41674;52.290;-1.474;2023-02-28T15:10:43;5;3;
55754;PMS5003;41674;52.290;-1.474;2023-02-28T15:13:13;7;7;
55754;PMS5003;41674;52.290;-1.474;2023-02-28T15:15:43;7;7;
55754;PMS5003;41674;52.290;-1.474;2023-02-28T15:18:14;5;5;
55754;PMS5003;41674;52.290;-1.474;2023-02-28T15:20:42;7;6;
55754;PMS5003;41674;52.290;-1.474;2023-02-28T15:23:11;5;4;
55754;PMS5003;41674;52.290;-1.474;2023-02-28T15:25:41;5;5;
55754;PMS5003;41674;52.290;-1.474;2023-02-28T15:30:49;6;6;
55754;PMS5003;41674;52.290;-1.474;2023-02-28T15:35:39;5;4;
55754;PMS5003;41674;52.290;-1.474;2023-02-28T15:38:13;4;4;
55754;PMS5003;41674;52.290;-1.474;2023-02-28T15:40:40;4;4;
55754;PMS5003;41674;52.290;-1.474;2023-02-28T15:43:12;4;4;
55754;PMS5003;41674;52.290;-1.474;2023-02-28T15:45:38;6;6;
55754;PMS5003;41674;52.290;-1.474;2023-02-28T15:48:13;5;5;
55754;PMS5003;41674;52.290;-1.474;2023-02-28T15:50:37;10;8;
55754;PMS5003;41674;52.290;-1.474;2023-02-28T15:53:09;6;6;
55754;PMS5003;41674;52.290;-1.474;2023-02-28T15:55:36;8;7;
55754;PMS5003;41674;52.290;-1.474;2023-02-28T15:58:07;7;7;
55754;PMS5003;41674;52.290;-1.474;2023-02-28T16:00:35;9;8;
55754;PMS5003;41674;52.290;-1.474;2023-02-28T16:05:35;7;7;
55754;PMS5003;41674;52.290;-1.474;2023-02-28T16:08:11;8;7;
55754;PMS5003;41674;52.290;-1.474;2023-02-28T16:10:34;7;7;
55754;PMS5003;41674;52.290;-1.474;2023-02-28T16:13:04;8;7;
55754;PMS5003;41674;52.290;-1.474;2023-02-28T16:15:35;8;6;
55754;PMS5003;41674;52.290;-1.474;2023-02-28T16:18:03;10;9;
55754;PMS5003;41674;52.290;-1.474;2023-02-28T16:20:33;6;6;
55754;PMS5003;41674;52.290;-1.474;2023-02-28T16:23:02;8;7;
55754;PMS5003;41674;52.290;-1.474;2023-02-28T16:25:34;6;5;
55754;PMS5003;41674;52.290;-1.474;2023-02-28T16:28:02;10;10;
55754;PMS5003;41674;52.290;-1.474;2023-02-28T16:30:31;8;8;
55754;PMS5003;41674;52.290;-1.474;2023-02-28T16:33:01;6;6;
55754;PMS5003;41674;52.290;-1.474;2023-02-28T16:35:31;9;7;
55754;PMS5003;41674;52.290;-1.474;2023-02-28T16:38:00;6;6;
55754;PMS5003;41674;52.290;-1.474;2023-02-28T16:40:33;6;6;
55754;PMS5003;41674;52.290;-1.474;2023-02-28T16:43:00;7;7;
55754;PMS5003;41674;52.290;-1.474;2023-02-28T16:45:29;8;7;
55754;PMS5003;41674;52.290;-1.474;2023-02-28T16:47:59;10;9;
55754;PMS5003;41674;52.290;-1.474;2023-02-28T16:50:30;7;7;
55754;PMS5003;41674;52.290;-1.474;2023-02-28T16:52:58;9;7;
55754;PMS5003;41674;52.290;-1.474;2023-02-28T16:55:28;9;6;
55754;PMS5003;41674;52.290;-1.474;2023-02-28T16:57:59;7;6;
55754;PMS5003;41674;52.290;-1.474;2023-02-28T17:00:28;12;9;
55754;PMS5003;41674;52.290;-1.474;2023-02-28T17:02:57;9;8;
55754;PMS5003;41674;52.290;-1.474;2023-02-28T17:05:27;7;7;
55754;PMS5003;41674;52.290;-1.474;2023-02-28T17:07:56;12;10;